createdAt,value
2018-07-13T00:00:36.878Z,5.03
2018-07-13T00:03:05.605Z,6.00
2018-07-13T00:05:35.686Z,5.33
2018-07-13T00:08:04.213Z,5.23
2018-07-13T00:10:32.815Z,5.50
2018-07-13T00:13:02.354Z,5.50
2018-07-13T00:15:30.906Z,5.07
2018-07-13T00:17:59.436Z,5.27
2018-07-13T00:20:40.600Z,5.80
2018-07-13T00:23:09.163Z,5.47
2018-07-13T00:25:37.685Z,5.33
2018-07-13T00:28:06.286Z,6.07
2018-07-13T00:30:34.910Z,5.67
2018-07-13T00:33:03.471Z,5.30
2018-07-13T00:35:33.663Z,5.40
2018-07-13T00:38:02.237Z,5.50
2018-07-13T00:40:30.796Z,5.97
2018-07-13T00:42:58.997Z,6.00
2018-07-13T00:45:27.554Z,5.87
2018-07-13T00:47:56.104Z,4.97
2018-07-13T00:50:24.769Z,6.23
2018-07-13T00:52:53.770Z,5.90
2018-07-13T00:55:22.343Z,6.47
2018-07-13T00:57:50.874Z,5.80
2018-07-13T01:00:30.538Z,6.23
2018-07-13T01:02:59.476Z,5.97
2018-07-13T01:05:28.106Z,6.27
2018-07-13T01:07:57.238Z,6.83
2018-07-13T01:10:39.271Z,5.37
2018-07-13T01:13:07.826Z,6.50
2018-07-13T01:15:36.486Z,6.33
2018-07-13T01:18:05.165Z,6.50
2018-07-13T01:20:33.749Z,6.50
2018-07-13T01:23:02.318Z,6.37
2018-07-13T01:25:30.847Z,6.23
2018-07-13T01:27:59.369Z,6.23
2018-07-13T01:30:27.966Z,6.60
2018-07-13T01:32:56.525Z,6.20
2018-07-13T01:35:25.231Z,6.50
2018-07-13T01:37:53.766Z,6.70
2018-07-13T01:40:23.591Z,6.70
2018-07-13T01:42:52.117Z,7.10
2018-07-13T01:45:20.648Z,6.70
2018-07-13T01:47:49.162Z,6.90
2018-07-13T01:50:17.795Z,6.80
2018-07-13T01:52:46.345Z,7.50
2018-07-13T01:55:15.455Z,7.97
2018-07-13T01:57:44.007Z,7.13
2018-07-13T02:00:12.546Z,6.73
2018-07-13T02:02:41.131Z,7.30
2018-07-13T02:05:09.690Z,7.17
2018-07-13T02:07:38.225Z,7.53
2018-07-13T02:10:06.737Z,6.90
2018-07-13T02:12:35.295Z,7.13
2018-07-13T02:15:03.912Z,7.60
2018-07-13T02:17:32.482Z,7.40
2018-07-13T02:20:01.024Z,7.00
2018-07-13T02:22:29.577Z,7.53
2018-07-13T02:24:58.133Z,8.30
2018-07-13T02:27:26.702Z,7.93
2018-07-13T02:29:55.455Z,7.70
2018-07-13T02:32:24.021Z,6.83
2018-07-13T02:34:52.574Z,7.00
2018-07-13T02:37:22.015Z,7.80
2018-07-13T02:39:50.630Z,7.93
2018-07-13T02:42:19.162Z,8.87
2018-07-13T02:44:47.750Z,8.40
2018-07-13T02:47:16.266Z,8.17
2018-07-13T02:49:44.994Z,7.50
2018-07-13T02:52:13.591Z,8.10
2018-07-13T02:54:43.075Z,8.87
2018-07-13T02:57:11.667Z,8.60
2018-07-13T02:59:40.223Z,8.07
2018-07-13T03:02:08.783Z,8.53
2018-07-13T03:04:37.319Z,8.87
2018-07-13T03:07:05.512Z,9.80
2018-07-13T03:09:34.055Z,9.53
2018-07-13T03:12:02.607Z,9.97
2018-07-13T03:14:31.162Z,8.60
2018-07-13T03:16:59.679Z,9.50
2018-07-13T03:19:28.300Z,9.47
2018-07-13T03:21:56.866Z,9.07
2018-07-13T03:24:25.422Z,9.10
2018-07-13T03:26:53.996Z,8.60
2018-07-13T03:29:22.539Z,9.00
2018-07-13T03:31:51.072Z,9.80
2018-07-13T03:34:19.600Z,9.47
2018-07-13T03:36:48.127Z,10.17
2018-07-13T03:39:16.997Z,9.80
2018-07-13T03:41:45.553Z,9.70
2018-07-13T03:44:14.131Z,10.87
2018-07-13T03:46:42.641Z,10.10
2018-07-13T03:49:11.305Z,10.00
2018-07-13T03:51:39.837Z,9.83
2018-07-13T03:54:08.345Z,10.37
2018-07-13T03:56:37.153Z,10.10
2018-07-13T03:59:05.793Z,9.67
2018-07-13T04:01:34.455Z,10.63
2018-07-13T04:04:03.269Z,9.10
2018-07-13T04:06:31.862Z,9.27
2018-07-13T04:09:00.321Z,9.77
2018-07-13T04:11:28.881Z,10.20
2018-07-13T04:13:57.516Z,9.73
2018-07-13T04:16:26.052Z,9.13
2018-07-13T04:18:55.590Z,9.17
2018-07-13T04:21:25.781Z,9.77
2018-07-13T04:23:54.375Z,10.20
2018-07-13T04:26:23.049Z,9.23
2018-07-13T04:28:52.401Z,9.27
2018-07-13T04:31:21.038Z,9.70
2018-07-13T04:33:49.624Z,9.87
2018-07-13T04:36:18.219Z,10.17
2018-07-13T04:38:47.757Z,10.57
2018-07-13T04:41:16.339Z,10.10
2018-07-13T04:46:19.765Z,10.50
2018-07-13T04:48:48.390Z,10.33
2018-07-13T04:51:17.044Z,10.67
2018-07-13T04:53:45.861Z,9.80
2018-07-13T04:56:14.522Z,11.33
2018-07-13T04:58:43.148Z,10.17
2018-07-13T05:01:12.406Z,9.90
2018-07-13T05:03:41.079Z,9.90
2018-07-13T05:06:09.925Z,11.30
2018-07-13T05:08:38.542Z,10.70
2018-07-13T05:11:08.282Z,9.27
2018-07-13T05:13:36.931Z,9.00
2018-07-13T05:16:05.692Z,8.90
2018-07-13T05:18:36.302Z,8.80
2018-07-13T05:21:04.902Z,8.13
2018-07-13T05:23:33.779Z,8.07
2018-07-13T05:26:02.404Z,8.00
2018-07-13T05:28:31.057Z,8.10
2018-07-13T05:30:59.732Z,7.33
2018-07-13T05:33:28.309Z,7.80
2018-07-13T05:35:56.925Z,7.63
2018-07-13T05:38:25.611Z,7.30
2018-07-13T05:40:54.181Z,8.77
2018-07-13T05:43:22.776Z,7.43
2018-07-13T05:45:51.409Z,7.87
2018-07-13T05:48:20.038Z,7.67
2018-07-13T05:50:48.644Z,8.03
2018-07-13T05:53:17.277Z,8.57
2018-07-13T05:55:45.962Z,8.37
2018-07-13T05:58:14.559Z,6.87
2018-07-13T06:00:43.197Z,8.03
2018-07-13T06:03:11.793Z,7.20
2018-07-13T06:05:40.431Z,7.70
2018-07-13T06:08:09.084Z,7.33
2018-07-13T06:10:37.718Z,9.10
2018-07-13T06:13:06.330Z,7.87
2018-07-13T06:15:34.911Z,7.30
2018-07-13T06:18:03.421Z,8.03
2018-07-13T06:20:32.037Z,7.67
2018-07-13T06:23:00.562Z,8.57
2018-07-13T06:25:29.170Z,7.33
2018-07-13T06:27:57.742Z,7.87
2018-07-13T06:30:26.369Z,7.87
2018-07-13T06:32:56.349Z,7.30
2018-07-13T06:35:28.845Z,7.80
2018-07-13T06:37:58.750Z,8.30
2018-07-13T06:40:27.032Z,7.37
2018-07-13T06:42:55.609Z,7.13
2018-07-13T06:45:24.245Z,7.70
2018-07-13T06:47:52.847Z,6.90
2018-07-13T06:50:21.453Z,7.00
2018-07-13T06:52:50.070Z,7.47
2018-07-13T06:55:19.090Z,6.77
2018-07-13T06:57:59.156Z,6.33
2018-07-13T07:01:12.568Z,7.20
2018-07-13T07:04:49.331Z,7.00
2018-07-13T07:07:19.523Z,6.90
2018-07-13T07:09:52.109Z,6.50
2018-07-13T07:12:58.846Z,6.37
2018-07-13T07:15:27.407Z,6.93
2018-07-13T07:17:56.007Z,6.70
2018-07-13T07:20:24.695Z,6.50
2018-07-13T07:22:53.330Z,5.60
2018-07-13T07:25:22.258Z,6.67
2018-07-13T07:27:50.794Z,6.80
2018-07-13T07:30:19.383Z,6.60
2018-07-13T07:32:48.390Z,6.30
2018-07-13T07:35:16.931Z,8.50
2018-07-13T07:37:45.518Z,6.40
2018-07-13T07:40:14.128Z,5.80
2018-07-13T07:42:42.724Z,6.30
2018-07-13T07:45:11.301Z,7.00
2018-07-13T07:47:39.919Z,6.97
2018-07-13T07:50:08.641Z,5.83
2018-07-13T07:52:37.193Z,6.53
2018-07-13T07:55:05.806Z,6.23
2018-07-13T07:57:34.416Z,6.03
2018-07-13T08:00:03.024Z,6.17
2018-07-13T08:02:32.069Z,6.07
2018-07-13T08:05:00.589Z,5.70
2018-07-13T08:07:29.254Z,5.40
2018-07-13T08:09:57.793Z,5.50
2018-07-13T08:12:26.398Z,5.83
2018-07-13T08:14:55.256Z,6.30
2018-07-13T08:17:24.087Z,6.10
2018-07-13T08:19:52.839Z,6.00
2018-07-13T08:22:26.127Z,5.73
2018-07-13T08:24:56.046Z,6.90
2018-07-13T08:27:34.073Z,6.63
2018-07-13T08:30:03.535Z,5.60
2018-07-13T08:32:32.190Z,6.20
2018-07-13T08:35:00.825Z,5.77
2018-07-13T08:37:29.515Z,4.97
2018-07-13T08:39:58.060Z,5.53
2018-07-13T08:42:26.684Z,5.50
2018-07-13T08:44:55.287Z,5.00
2018-07-13T08:47:23.915Z,5.30
2018-07-13T08:49:52.533Z,5.00
2018-07-13T08:52:21.446Z,4.80
2018-07-13T08:54:50.133Z,4.80
2018-07-13T08:57:18.893Z,5.10
2018-07-13T08:59:48.015Z,4.50
2018-07-13T09:02:16.581Z,4.90
2018-07-13T09:04:45.248Z,5.30
2018-07-13T09:07:13.948Z,5.10
2018-07-13T09:09:42.548Z,5.17
2018-07-13T09:12:11.237Z,5.20
2018-07-13T09:14:39.834Z,5.30
2018-07-13T09:17:08.446Z,4.70
2018-07-13T09:19:37.281Z,5.10
2018-07-13T09:22:06.164Z,4.73
2018-07-13T09:24:34.855Z,5.07
2018-07-13T09:27:03.820Z,4.33
2018-07-13T09:29:32.434Z,4.73
2018-07-13T09:32:02.012Z,4.63
2018-07-13T09:34:30.659Z,4.50
2018-07-13T09:36:59.303Z,4.90
2018-07-13T09:39:27.900Z,4.37
2018-07-13T09:41:56.521Z,5.70
2018-07-13T09:44:25.065Z,5.20
2018-07-13T09:46:53.792Z,5.33
2018-07-13T09:49:22.329Z,4.90
2018-07-13T09:51:50.995Z,5.20
2018-07-13T09:54:20.189Z,5.33
2018-07-13T09:56:49.742Z,5.50
2018-07-13T09:59:18.250Z,5.17
2018-07-13T10:01:46.951Z,5.00
2018-07-13T10:04:15.580Z,5.57
2018-07-13T10:06:44.211Z,5.67
2018-07-13T10:09:13.528Z,5.00
2018-07-13T10:11:42.092Z,5.37
2018-07-13T10:14:10.843Z,5.80
2018-07-13T10:16:39.447Z,6.33
2018-07-13T10:19:08.062Z,5.70
2018-07-13T10:21:38.594Z,5.20
2018-07-13T10:24:07.671Z,5.47
2018-07-13T10:26:38.678Z,6.33
2018-07-13T10:29:11.377Z,5.83
2018-07-13T10:31:40.019Z,5.50
2018-07-13T10:34:09.752Z,6.80
2018-07-13T10:36:49.443Z,6.23
2018-07-13T10:39:18.777Z,5.50
2018-07-13T10:41:48.071Z,5.80
2018-07-13T10:44:17.245Z,5.70
2018-07-13T10:46:45.881Z,5.60
2018-07-13T10:49:14.527Z,6.17
2018-07-13T10:51:43.707Z,6.07
2018-07-13T10:54:12.457Z,6.47
2018-07-13T10:56:41.051Z,5.47
2018-07-13T10:59:11.522Z,5.60
2018-07-13T11:01:40.461Z,5.57
2018-07-13T11:04:09.992Z,5.40
2018-07-13T11:06:39.378Z,5.63
2018-07-13T11:09:09.136Z,5.80
2018-07-13T11:11:37.903Z,6.43
2018-07-13T11:14:07.160Z,6.13
2018-07-13T11:16:35.688Z,5.80
2018-07-13T11:19:04.859Z,6.03
2018-07-13T11:21:33.661Z,5.70
2018-07-13T11:24:02.313Z,6.30
2018-07-13T11:26:31.882Z,6.17
2018-07-13T11:29:00.545Z,5.90
2018-07-13T11:31:29.149Z,6.40
2018-07-13T11:33:58.195Z,5.90
2018-07-13T11:36:26.874Z,5.67
2018-07-13T11:38:56.410Z,6.10
2018-07-13T11:41:25.014Z,5.90
2018-07-13T11:43:53.641Z,6.20
2018-07-13T11:46:22.477Z,5.90
2018-07-13T11:48:51.621Z,6.23
2018-07-13T11:51:20.283Z,5.30
2018-07-13T11:53:49.592Z,5.53
2018-07-13T11:56:19.390Z,6.37
2018-07-13T11:58:48.047Z,5.57
2018-07-13T12:01:16.733Z,5.87
2018-07-13T12:03:45.367Z,6.00
2018-07-13T12:06:16.651Z,5.77
2018-07-13T12:08:45.205Z,5.63
2018-07-13T12:11:14.835Z,5.70
2018-07-13T12:13:56.631Z,6.30
2018-07-13T12:16:28.064Z,5.50
2018-07-13T12:18:57.158Z,5.87
2018-07-13T12:21:25.773Z,5.80
2018-07-13T12:23:55.033Z,6.00
2018-07-13T12:26:24.170Z,5.47
2018-07-13T12:28:52.725Z,6.40
2018-07-13T12:31:21.978Z,5.50
2018-07-13T12:33:51.496Z,6.13
2018-07-13T12:36:24.304Z,5.60
2018-07-13T12:38:53.690Z,6.00
2018-07-13T12:41:22.799Z,5.30
2018-07-13T12:43:51.313Z,5.50
2018-07-13T12:46:19.886Z,5.57
2018-07-13T12:48:49.369Z,5.43
2018-07-13T12:51:17.963Z,5.20
2018-07-13T12:53:46.937Z,5.10
2018-07-13T12:56:15.434Z,4.80
2018-07-13T12:58:43.942Z,5.27
2018-07-13T13:01:12.563Z,4.80
2018-07-13T13:03:41.184Z,5.30
2018-07-13T13:06:09.717Z,5.30
2018-07-13T13:08:38.410Z,4.77
2018-07-13T13:11:07.275Z,5.30
2018-07-13T13:13:36.626Z,5.40
2018-07-13T13:16:05.262Z,4.73
2018-07-13T13:18:34.731Z,4.80
2018-07-13T13:21:05.677Z,5.53
2018-07-13T13:23:34.242Z,5.23
2018-07-13T13:26:03.502Z,5.60
2018-07-13T13:28:32.014Z,5.20
2018-07-13T13:31:01.576Z,5.40
2018-07-13T13:33:30.950Z,4.83
2018-07-13T13:35:59.528Z,5.00
2018-07-13T13:38:28.099Z,4.90
2018-07-13T13:40:58.129Z,5.50
2018-07-13T13:43:26.707Z,5.40
2018-07-13T13:45:58.802Z,5.63
2018-07-13T13:48:27.371Z,4.90
2018-07-13T13:50:56.314Z,5.00
2018-07-13T13:53:26.438Z,5.00
2018-07-13T13:55:54.956Z,5.00
2018-07-13T13:58:23.522Z,5.73
2018-07-13T14:00:52.153Z,5.50
2018-07-13T14:03:20.974Z,5.60
2018-07-13T14:05:49.538Z,5.80
2018-07-13T14:08:18.584Z,5.13
2018-07-13T14:10:47.203Z,5.13
2018-07-13T14:13:16.712Z,5.37
2018-07-13T14:15:45.849Z,4.90
2018-07-13T14:18:15.311Z,4.50
2018-07-13T14:20:43.930Z,4.50
2018-07-13T14:23:12.502Z,4.97
2018-07-13T14:25:41.741Z,4.70
2018-07-13T14:28:10.336Z,4.70
2018-07-13T14:30:39.168Z,4.90
2018-07-13T14:33:07.798Z,4.67
2018-07-13T14:35:36.402Z,4.73
2018-07-13T14:38:04.982Z,5.20
2018-07-13T14:40:34.748Z,4.40
2018-07-13T14:43:04.757Z,4.80
2018-07-13T14:45:33.335Z,3.70
2018-07-13T14:48:01.941Z,4.30
2018-07-13T14:50:30.960Z,4.33
2018-07-13T14:53:00.071Z,4.80
2018-07-13T14:55:28.598Z,4.50
2018-07-13T14:57:57.447Z,4.90
2018-07-13T15:00:25.981Z,4.60
2018-07-13T15:02:55.576Z,4.17
2018-07-13T15:05:24.490Z,4.60
2018-07-13T15:07:54.334Z,4.43
2018-07-13T15:10:23.356Z,4.23
2018-07-13T15:12:52.934Z,4.50
2018-07-13T15:15:21.482Z,5.00
2018-07-13T15:17:50.087Z,4.33
2018-07-13T15:20:19.547Z,4.33
2018-07-13T15:22:49.200Z,4.40
2018-07-13T15:25:17.746Z,4.37
2018-07-13T15:27:46.311Z,4.27
2018-07-13T15:30:16.358Z,5.73
2018-07-13T15:32:45.434Z,4.73
2018-07-13T15:35:14.010Z,4.83
2018-07-13T15:37:43.408Z,4.63
2018-07-13T15:40:12.585Z,4.47
2018-07-13T15:42:42.207Z,4.30
2018-07-13T15:45:13.007Z,20.13
2018-07-13T15:48:24.600Z,4.03
2018-07-13T15:50:56.568Z,4.07
2018-07-13T15:53:26.730Z,3.87
2018-07-13T15:55:57.613Z,5.37
2018-07-13T15:58:26.756Z,4.80
2018-07-13T16:00:56.190Z,4.77
2018-07-13T16:03:24.869Z,4.30
2018-07-13T16:05:55.615Z,4.83
2018-07-13T16:08:25.174Z,5.00
2018-07-13T16:10:55.227Z,6.80
2018-07-13T16:13:23.934Z,4.70
2018-07-13T16:15:52.835Z,4.30
2018-07-13T16:18:22.034Z,4.30
2018-07-13T16:20:50.585Z,4.40
2018-07-13T16:23:19.114Z,4.63
2018-07-13T16:25:47.601Z,4.40
2018-07-13T16:28:16.167Z,4.50
2018-07-13T16:30:45.657Z,4.50
2018-07-13T16:33:14.266Z,4.83
2018-07-13T16:35:43.275Z,4.77
2018-07-13T16:38:13.130Z,5.73
2018-07-13T16:40:41.772Z,4.43
2018-07-13T16:43:11.023Z,4.53
2018-07-13T16:45:40.197Z,4.20
2018-07-13T16:48:09.286Z,4.43
2018-07-13T16:50:37.897Z,4.40
2018-07-13T16:53:06.426Z,4.53
2018-07-13T16:55:35.359Z,4.90
2018-07-13T16:58:03.967Z,12.60
2018-07-13T17:00:36.518Z,4.73
2018-07-13T17:03:06.553Z,11.87
2018-07-13T17:05:40.121Z,5.70
2018-07-13T17:08:09.205Z,7.80
2018-07-13T17:10:38.693Z,29.37
2018-07-13T17:13:07.647Z,10.53
2018-07-13T17:15:36.202Z,4.83
2018-07-13T17:18:05.426Z,4.10
2018-07-13T17:20:34.117Z,4.90
2018-07-13T17:23:03.244Z,4.10
2018-07-13T17:25:33.134Z,3.97
2018-07-13T17:28:01.734Z,4.60
2018-07-13T17:30:30.987Z,4.20
2018-07-13T17:32:59.627Z,4.70
2018-07-13T17:35:29.135Z,4.90
2018-07-13T17:37:57.707Z,7.17
2018-07-13T17:40:26.262Z,7.23
2018-07-13T17:42:55.230Z,5.80
2018-07-13T17:45:54.376Z,5.90
2018-07-13T17:48:22.942Z,6.13
2018-07-13T17:50:51.481Z,4.80
2018-07-13T17:53:20.082Z,4.83
2018-07-13T17:55:49.306Z,5.17
2018-07-13T17:58:17.876Z,7.90
2018-07-13T18:00:46.466Z,6.40
2018-07-13T18:03:15.014Z,4.80
2018-07-13T18:05:43.534Z,5.00
2018-07-13T18:08:12.143Z,4.53
2018-07-13T18:10:40.666Z,5.07
2018-07-13T18:13:09.294Z,5.13
2018-07-13T18:15:39.514Z,4.10
2018-07-13T18:18:09.079Z,5.67
2018-07-13T18:20:39.383Z,10.13
2018-07-13T18:23:08.305Z,7.77
2018-07-13T18:25:38.128Z,9.80
2018-07-13T18:28:12.322Z,6.47
2018-07-13T18:30:41.632Z,7.30
2018-07-13T18:33:12.281Z,8.60
2018-07-13T18:35:41.633Z,6.30
2018-07-13T18:38:10.876Z,10.80
2018-07-13T18:40:39.516Z,10.50
2018-07-13T18:43:08.463Z,7.80
2018-07-13T18:45:37.398Z,12.57
2018-07-13T18:48:06.508Z,17.13
2018-07-13T18:50:35.800Z,10.60
2018-07-13T18:53:04.656Z,12.93
2018-07-13T18:55:33.279Z,12.37
2018-07-13T18:58:02.139Z,11.33
2018-07-13T19:00:31.625Z,7.30
2018-07-13T19:03:00.802Z,5.50
2018-07-13T19:05:29.886Z,6.20
2018-07-13T19:07:58.877Z,5.20
2018-07-13T19:10:28.431Z,7.00
2018-07-13T19:12:57.003Z,6.57
2018-07-13T19:15:25.734Z,6.23
2018-07-13T19:17:54.360Z,6.10
2018-07-13T19:20:23.528Z,5.17
2018-07-13T19:22:58.467Z,5.70
2018-07-13T19:25:27.456Z,5.60
2018-07-13T19:27:56.058Z,6.20
2018-07-13T19:30:25.058Z,5.40
2018-07-13T19:32:54.086Z,5.80
2018-07-13T19:35:22.608Z,5.13
2018-07-13T19:37:51.152Z,5.40
2018-07-13T19:40:19.727Z,5.50
2018-07-13T19:42:49.594Z,5.40
2018-07-13T19:45:18.145Z,5.30
2018-07-13T19:47:46.770Z,5.57
2018-07-13T19:50:15.687Z,5.80
2018-07-13T19:52:44.607Z,5.63
2018-07-13T19:55:13.174Z,5.30
2018-07-13T19:57:42.560Z,5.80
2018-07-13T20:00:12.612Z,6.53
2018-07-13T20:02:42.073Z,5.80
2018-07-13T20:05:11.536Z,5.73
2018-07-13T20:07:40.079Z,6.20
2018-07-13T20:10:09.892Z,5.90
2018-07-13T20:12:38.486Z,5.87
2018-07-13T20:15:07.126Z,5.77
2018-07-13T20:17:35.683Z,5.67
2018-07-13T20:20:04.337Z,6.00
2018-07-13T20:22:32.927Z,6.60
2018-07-13T20:25:01.477Z,6.80
2018-07-13T20:27:30.738Z,7.30
2018-07-13T20:29:59.306Z,7.47
2018-07-13T20:32:27.802Z,6.73
2018-07-13T20:34:56.326Z,6.03
2018-07-13T20:37:31.480Z,6.00
2018-07-13T20:40:00.076Z,6.17
2018-07-13T20:42:29.558Z,5.43
2018-07-13T20:44:58.092Z,6.10
2018-07-13T20:47:26.705Z,6.13
2018-07-13T20:49:55.803Z,6.77
2018-07-13T20:52:24.418Z,6.30
2018-07-13T20:54:53.997Z,6.67
2018-07-13T20:57:22.604Z,6.50
2018-07-13T20:59:51.483Z,7.03
2018-07-13T21:02:20.076Z,7.50
2018-07-13T21:04:48.662Z,7.27
2018-07-13T21:07:17.191Z,7.30
2018-07-13T21:09:46.352Z,7.07
2018-07-13T21:12:14.935Z,6.80
2018-07-13T21:14:43.469Z,6.73
2018-07-13T21:17:21.296Z,7.03
2018-07-13T21:19:51.359Z,7.70
2018-07-13T21:22:21.755Z,6.87
2018-07-13T21:24:50.416Z,7.40
2018-07-13T21:27:19.407Z,6.90
2018-07-13T21:29:48.002Z,6.77
2018-07-13T21:32:17.284Z,7.70
2018-07-13T21:34:45.906Z,7.53
2018-07-13T21:37:14.759Z,6.70
2018-07-13T21:39:43.249Z,7.50
2018-07-13T21:42:11.887Z,7.97
2018-07-13T21:44:40.464Z,7.50
2018-07-13T21:47:09.047Z,7.30
2018-07-13T21:49:37.658Z,7.67
2018-07-13T21:52:06.254Z,7.00
2018-07-13T21:54:35.117Z,8.23
2018-07-13T21:57:03.680Z,7.90
2018-07-13T21:59:32.217Z,7.90
2018-07-13T22:02:00.818Z,7.80
2018-07-13T22:04:29.346Z,7.60
2018-07-13T22:06:57.879Z,7.53
2018-07-13T22:09:26.476Z,11.83
2018-07-13T22:11:55.022Z,8.80
2018-07-13T22:14:23.579Z,8.00
2018-07-13T22:16:52.147Z,8.47
2018-07-13T22:19:20.700Z,8.43
2018-07-13T22:21:49.300Z,8.87
2018-07-13T22:24:17.821Z,9.13
2018-07-13T22:26:46.384Z,8.03
2018-07-13T22:29:15.051Z,8.00
2018-07-13T22:31:43.619Z,7.50
2018-07-13T22:34:12.163Z,7.70
2018-07-13T22:36:40.721Z,8.13
2018-07-13T22:39:09.294Z,7.30
2018-07-13T22:41:37.868Z,7.47
2018-07-13T22:44:06.430Z,7.20
2018-07-13T22:46:34.934Z,7.33
2018-07-13T22:49:03.465Z,7.83
2018-07-13T22:51:31.966Z,7.97
2018-07-13T22:54:00.538Z,7.83
2018-07-13T22:56:29.093Z,7.03
2018-07-13T22:58:57.665Z,8.00
2018-07-13T23:01:26.264Z,8.10
2018-07-13T23:03:54.772Z,7.97
2018-07-13T23:06:23.292Z,7.83
2018-07-13T23:08:51.833Z,7.53
2018-07-13T23:11:20.357Z,7.63
2018-07-13T23:13:48.905Z,8.30
2018-07-13T23:16:17.483Z,8.07
2018-07-13T23:18:46.326Z,8.60
2018-07-13T23:21:14.899Z,8.47
2018-07-13T23:23:43.474Z,8.80
2018-07-13T23:26:12.008Z,8.40
2018-07-13T23:28:40.579Z,7.70
2018-07-13T23:31:09.130Z,7.93
2018-07-13T23:33:37.709Z,8.23
2018-07-13T23:36:06.350Z,8.07
2018-07-13T23:38:34.916Z,9.10
2018-07-13T23:41:03.473Z,8.57
2018-07-13T23:43:32.052Z,8.40
2018-07-13T23:46:00.597Z,8.70
2018-07-13T23:48:29.292Z,7.50
2018-07-13T23:50:57.846Z,9.23
2018-07-13T23:53:26.394Z,7.80
2018-07-13T23:55:54.958Z,8.90
2018-07-13T23:58:23.150Z,8.67
